createdAt,value
2022-11-10T00:02:32.712Z,3.33
2022-11-10T00:05:18.092Z,3.22
2022-11-10T00:08:07.230Z,3.17
2022-11-10T00:10:58.813Z,3.35
2022-11-10T00:14:02.526Z,4.07
2022-11-10T00:17:05.030Z,3.17
2022-11-10T00:19:50.217Z,3.55
2022-11-10T00:22:37.828Z,2.90
2022-11-10T00:25:24.107Z,3.17
2022-11-10T00:28:09.426Z,3.15
2022-11-10T00:30:55.063Z,2.97
2022-11-10T00:33:43.280Z,2.67
2022-11-10T00:36:29.757Z,2.75
2022-11-10T00:39:17.168Z,3.05
2022-11-10T00:42:03.933Z,3.50
2022-11-10T00:44:49.196Z,2.83
2022-11-10T00:47:35.037Z,2.90
2022-11-10T00:50:20.740Z,2.75
2022-11-10T00:53:06.456Z,2.83
2022-11-10T00:55:51.530Z,2.55
2022-11-10T00:58:36.542Z,2.50
2022-11-10T01:01:24.739Z,2.72
2022-11-10T01:04:09.779Z,2.90
2022-11-10T01:06:55.334Z,2.95
2022-11-10T01:09:40.147Z,2.75
2022-11-10T01:12:46.036Z,2.35
2022-11-10T01:15:50.909Z,3.13
2022-11-10T01:19:00.479Z,2.22
2022-11-10T01:22:05.654Z,2.15
2022-11-10T01:25:11.642Z,2.13
2022-11-10T01:28:16.466Z,2.38
2022-11-10T01:31:03.814Z,2.65
2022-11-10T01:33:51.809Z,2.50
2022-11-10T01:36:37.591Z,2.45
2022-11-10T01:39:22.762Z,2.90
2022-11-10T01:42:08.091Z,2.75
2022-11-10T01:45:24.262Z,2.42
2022-11-10T01:48:15.064Z,2.63
2022-11-10T01:51:09.022Z,2.47
2022-11-10T01:54:03.820Z,2.72
2022-11-10T01:56:53.049Z,3.03
2022-11-10T01:59:46.421Z,2.40
2022-11-10T02:02:42.823Z,3.50
2022-11-10T02:05:27.888Z,2.78
2022-11-10T02:08:16.101Z,2.75
2022-11-10T02:11:01.379Z,2.60
2022-11-10T02:13:47.039Z,3.10
2022-11-10T02:16:32.676Z,2.45
2022-11-10T02:19:21.260Z,3.00
2022-11-10T02:22:06.380Z,2.80
2022-11-10T02:24:52.234Z,3.17
2022-11-10T02:27:37.161Z,2.80
2022-11-10T02:30:27.449Z,2.85
2022-11-10T02:33:12.546Z,2.63
2022-11-10T02:35:58.532Z,2.90
2022-11-10T02:38:44.158Z,2.72
2022-11-10T02:41:29.514Z,2.90
2022-11-10T02:44:14.340Z,2.20
2022-11-10T02:47:00.414Z,2.83
2022-11-10T02:49:46.694Z,3.53
2022-11-10T02:52:33.464Z,2.53
2022-11-10T02:55:18.662Z,2.10
2022-11-10T02:58:04.536Z,3.10
2022-11-10T03:00:49.860Z,2.40
2022-11-10T03:03:35.323Z,2.30
2022-11-10T03:06:20.676Z,3.08
2022-11-10T03:09:05.910Z,2.40
2022-11-10T03:11:50.972Z,2.35
2022-11-10T03:14:36.181Z,2.67
2022-11-10T03:17:21.302Z,2.50
2022-11-10T03:20:07.053Z,2.47
2022-11-10T03:22:52.244Z,2.78
2022-11-10T03:25:38.922Z,2.17
2022-11-10T03:28:24.379Z,2.75
2022-11-10T03:31:09.349Z,2.63
2022-11-10T03:33:54.245Z,2.60
2022-11-10T03:36:39.766Z,2.67
2022-11-10T03:39:25.328Z,2.40
2022-11-10T03:42:11.607Z,2.80
2022-11-10T03:44:56.773Z,2.47
2022-11-10T03:47:47.491Z,2.88
2022-11-10T03:50:32.804Z,2.55
2022-11-10T03:53:17.873Z,3.28
2022-11-10T03:56:05.915Z,2.58
2022-11-10T03:58:50.877Z,2.90
2022-11-10T04:01:36.966Z,3.08
2022-11-10T04:04:40.781Z,2.60
2022-11-10T04:07:44.642Z,3.00
2022-11-10T04:10:30.007Z,2.97
2022-11-10T04:13:33.893Z,3.05
2022-11-10T04:16:22.557Z,2.90
2022-11-10T04:19:07.680Z,2.40
2022-11-10T04:21:52.901Z,2.80
2022-11-10T04:24:38.742Z,2.97
2022-11-10T04:27:23.734Z,2.60
2022-11-10T04:30:10.452Z,3.03
2022-11-10T04:32:55.859Z,2.83
2022-11-10T04:35:40.745Z,3.33
2022-11-10T04:38:25.902Z,4.20
2022-11-10T04:41:11.726Z,3.70
2022-11-10T04:43:57.910Z,3.75
2022-11-10T04:46:44.338Z,3.45
2022-11-10T04:49:29.610Z,3.47
2022-11-10T04:52:15.138Z,3.55
2022-11-10T04:55:00.001Z,4.18
2022-11-10T04:57:45.710Z,3.47
2022-11-10T05:00:30.700Z,3.17
2022-11-10T05:03:16.573Z,3.15
2022-11-10T05:06:01.816Z,3.28
2022-11-10T05:08:48.253Z,3.28
2022-11-10T05:11:33.668Z,3.22
2022-11-10T05:14:18.537Z,3.35
2022-11-10T05:17:04.408Z,3.53
2022-11-10T05:19:49.938Z,3.92
2022-11-10T05:22:35.240Z,3.95
2022-11-10T05:25:20.279Z,4.07
2022-11-10T05:28:08.343Z,3.08
2022-11-10T05:30:53.865Z,3.38
2022-11-10T05:33:39.394Z,3.97
2022-11-10T05:36:24.495Z,3.85
2022-11-10T05:39:09.494Z,3.92
2022-11-10T05:41:55.318Z,3.90
2022-11-10T05:44:40.223Z,3.05
2022-11-10T05:47:25.899Z,3.83
2022-11-10T05:50:11.170Z,3.60
2022-11-10T05:52:56.370Z,3.80
2022-11-10T05:55:41.544Z,3.35
2022-11-10T05:58:26.674Z,3.60
2022-11-10T06:01:11.900Z,4.18
2022-11-10T06:03:57.486Z,4.32
2022-11-10T06:06:42.493Z,3.80
2022-11-10T06:09:27.258Z,3.92
2022-11-10T06:12:12.423Z,4.32
2022-11-10T06:14:58.070Z,4.00
2022-11-10T06:17:43.989Z,3.72
2022-11-10T06:20:29.326Z,4.18
2022-11-10T06:23:15.559Z,4.28
2022-11-10T06:26:00.805Z,4.30
2022-11-10T06:28:45.651Z,4.05
2022-11-10T06:31:31.684Z,3.72
2022-11-10T06:34:16.638Z,4.70
2022-11-10T06:37:02.197Z,4.95
2022-11-10T06:39:47.424Z,4.57
2022-11-10T06:42:33.221Z,5.68
2022-11-10T06:45:18.386Z,5.50
2022-11-10T06:48:14.237Z,5.38
2022-11-10T06:51:04.043Z,5.50
2022-11-10T06:53:49.267Z,5.50
2022-11-10T06:56:37.506Z,5.03
2022-11-10T06:59:22.812Z,5.50
2022-11-10T07:02:14.673Z,5.80
2022-11-10T07:05:00.142Z,4.70
2022-11-10T07:07:45.195Z,4.40
2022-11-10T07:10:34.598Z,5.18
2022-11-10T07:13:20.406Z,5.30
2022-11-10T07:16:07.677Z,5.20
2022-11-10T07:18:52.780Z,4.53
2022-11-10T07:21:38.079Z,5.18
2022-11-10T07:24:23.633Z,4.30
2022-11-10T07:27:08.670Z,4.38
2022-11-10T07:29:54.466Z,4.07
2022-11-10T07:32:39.419Z,5.20
2022-11-10T07:35:24.176Z,5.38
2022-11-10T07:38:11.839Z,4.60
2022-11-10T07:40:57.074Z,4.45
2022-11-10T07:43:42.449Z,4.43
2022-11-10T07:46:27.824Z,4.25
2022-11-10T07:49:13.036Z,3.80
2022-11-10T07:51:58.517Z,5.03
2022-11-10T07:54:43.611Z,5.38
2022-11-10T07:57:28.583Z,4.90
2022-11-10T08:00:15.169Z,4.72
2022-11-10T08:03:10.590Z,4.35
2022-11-10T08:05:56.287Z,4.47
2022-11-10T08:08:41.426Z,4.18
2022-11-10T08:11:27.019Z,4.00
2022-11-10T08:14:12.302Z,4.60
2022-11-10T08:16:57.713Z,3.95
2022-11-10T08:19:43.005Z,4.10
2022-11-10T08:22:27.908Z,3.45
2022-11-10T08:25:13.042Z,3.85
2022-11-10T08:28:03.397Z,3.35
2022-11-10T08:33:34.542Z,3.67
2022-11-10T08:36:19.353Z,3.28
2022-11-10T08:39:04.542Z,3.60
2022-11-10T08:41:49.794Z,3.28
2022-11-10T08:44:35.016Z,3.95
2022-11-10T08:47:20.096Z,3.05
2022-11-10T08:50:07.555Z,3.08
2022-11-10T08:52:52.984Z,3.20
2022-11-10T08:55:38.549Z,3.03
2022-11-10T08:58:24.318Z,3.47
2022-11-10T09:01:10.062Z,3.72
2022-11-10T09:03:55.136Z,3.95
2022-11-10T09:06:40.510Z,3.28
2022-11-10T09:09:26.742Z,3.35
2022-11-10T09:12:11.972Z,3.33
2022-11-10T09:14:57.331Z,3.80
2022-11-10T09:17:42.487Z,2.70
2022-11-10T09:20:29.108Z,3.75
2022-11-10T09:23:16.890Z,4.38
2022-11-10T09:26:02.232Z,2.97
2022-11-10T09:28:50.495Z,3.50
2022-11-10T09:31:35.516Z,3.03
2022-11-10T09:34:21.376Z,3.85
2022-11-10T09:37:06.619Z,3.17
2022-11-10T09:39:52.498Z,3.08
2022-11-10T09:42:40.494Z,3.20
2022-11-10T09:45:42.237Z,3.15
2022-11-10T09:48:35.756Z,2.90
2022-11-10T09:51:25.198Z,2.80
2022-11-10T09:54:28.579Z,3.10
2022-11-10T09:57:17.552Z,2.50
2022-11-10T10:00:04.594Z,3.05
2022-11-10T10:02:56.082Z,2.92
2022-11-10T10:05:51.387Z,3.08
2022-11-10T10:09:14.525Z,2.83
2022-11-10T10:12:12.860Z,2.65
2022-11-10T10:15:27.286Z,3.05
2022-11-10T10:18:28.875Z,3.38
2022-11-10T10:21:34.951Z,3.05
2022-11-10T10:24:23.579Z,2.60
2022-11-10T10:27:15.573Z,3.30
2022-11-10T10:30:00.774Z,2.60
2022-11-10T10:32:46.115Z,3.30
2022-11-10T10:35:36.450Z,3.40
2022-11-10T10:38:38.158Z,2.78
2022-11-10T10:41:29.759Z,2.70
2022-11-10T10:44:18.110Z,2.40
2022-11-10T10:47:04.695Z,2.75
2022-11-10T10:49:49.667Z,2.42
2022-11-10T10:52:34.736Z,2.78
2022-11-10T10:55:19.853Z,2.47
2022-11-10T10:58:20.461Z,2.65
2022-11-10T11:01:24.469Z,3.05
2022-11-10T11:04:33.515Z,3.33
2022-11-10T11:07:24.174Z,2.28
2022-11-10T11:10:26.017Z,2.30
2022-11-10T11:13:25.983Z,3.70
2022-11-10T11:16:12.514Z,2.58
2022-11-10T11:18:57.840Z,3.42
2022-11-10T11:22:09.970Z,2.83
2022-11-10T11:25:24.650Z,2.35
2022-11-10T11:28:33.618Z,2.50
2022-11-10T11:31:29.609Z,2.47
2022-11-10T11:34:24.802Z,2.30
2022-11-10T11:37:24.281Z,2.45
2022-11-10T11:40:28.754Z,1.98
2022-11-10T11:43:29.335Z,2.42
2022-11-10T11:46:57.111Z,2.30
2022-11-10T11:50:09.652Z,2.40
2022-11-10T11:53:06.434Z,2.30
2022-11-10T11:56:14.072Z,3.10
2022-11-10T11:59:17.592Z,2.58
2022-11-10T12:02:23.550Z,2.88
2022-11-10T12:05:28.141Z,2.42
2022-11-10T12:08:33.404Z,1.88
2022-11-10T12:11:41.651Z,2.35
2022-11-10T12:14:58.082Z,1.98
2022-11-10T12:18:00.415Z,1.77
2022-11-10T12:21:07.727Z,2.00
2022-11-10T12:24:34.874Z,2.25
2022-11-10T12:27:38.079Z,2.20
2022-11-10T12:30:23.530Z,2.10
2022-11-10T12:33:33.692Z,2.38
2022-11-10T12:36:21.960Z,1.88
2022-11-10T12:39:13.561Z,2.10
2022-11-10T12:42:00.157Z,1.95
2022-11-10T12:45:05.342Z,2.15
2022-11-10T12:47:53.029Z,2.25
2022-11-10T12:50:58.246Z,1.75
2022-11-10T12:53:44.064Z,2.42
2022-11-10T12:56:37.732Z,2.38
2022-11-10T12:59:28.447Z,2.38
2022-11-10T13:02:28.459Z,1.77
2022-11-10T13:05:31.832Z,2.22
2022-11-10T13:08:24.889Z,2.65
2022-11-10T13:11:13.566Z,2.15
2022-11-10T13:14:01.261Z,2.30
2022-11-10T13:16:53.815Z,2.03
2022-11-10T13:19:38.730Z,2.00
2022-11-10T13:22:40.875Z,2.10
2022-11-10T13:25:38.021Z,1.98
2022-11-10T13:28:56.051Z,2.08
2022-11-10T13:31:50.123Z,2.33
2022-11-10T13:34:40.168Z,2.55
2022-11-10T13:37:34.572Z,2.55
2022-11-10T13:40:23.383Z,1.95
2022-11-10T13:43:14.243Z,2.10
2022-11-10T13:46:01.840Z,1.65
2022-11-10T13:49:15.996Z,2.15
2022-11-10T13:52:16.956Z,2.28
2022-11-10T13:55:16.726Z,1.92
2022-11-10T13:58:11.366Z,2.58
2022-11-10T14:01:14.662Z,2.53
2022-11-10T14:04:02.051Z,2.13
2022-11-10T14:06:54.800Z,1.98
2022-11-10T14:09:49.683Z,1.92
2022-11-10T14:12:48.110Z,1.75
2022-11-10T14:15:48.161Z,1.80
2022-11-10T14:18:40.419Z,1.90
2022-11-10T14:21:30.789Z,1.90
2022-11-10T14:24:29.104Z,1.83
2022-11-10T14:27:20.905Z,2.85
2022-11-10T14:30:17.137Z,2.40
2022-11-10T14:33:04.426Z,2.40
2022-11-10T14:36:08.842Z,2.33
2022-11-10T14:38:54.545Z,2.65
2022-11-10T14:41:49.212Z,1.85
2022-11-10T14:44:34.807Z,2.40
2022-11-10T14:47:31.071Z,1.92
2022-11-10T14:50:20.713Z,2.63
2022-11-10T14:53:23.616Z,2.25
2022-11-10T14:56:17.581Z,1.73
2022-11-10T14:59:06.013Z,1.90
2022-11-10T15:01:56.091Z,1.95
2022-11-10T15:04:45.775Z,1.92
2022-11-10T15:07:31.850Z,1.90
2022-11-10T15:10:19.221Z,2.53
2022-11-10T15:13:27.824Z,2.97
2022-11-10T15:16:29.350Z,2.30
2022-11-10T15:19:29.794Z,3.03
2022-11-10T15:22:33.765Z,2.10
2022-11-10T15:25:22.121Z,2.08
2022-11-10T15:28:13.505Z,2.20
2022-11-10T15:31:11.894Z,1.85
2022-11-10T15:34:03.362Z,1.90
2022-11-10T15:36:48.447Z,2.45
2022-11-10T15:39:33.498Z,2.25
2022-11-10T15:42:21.861Z,2.50
2022-11-10T15:45:07.301Z,2.17
2022-11-10T15:47:52.614Z,2.42
2022-11-10T15:50:37.663Z,2.47
2022-11-10T15:53:29.886Z,2.05
2022-11-10T15:56:25.249Z,2.47
2022-11-10T15:59:11.219Z,2.38
2022-11-10T16:01:56.568Z,2.60
2022-11-10T16:04:41.720Z,2.70
2022-11-10T16:07:26.681Z,2.33
2022-11-10T16:10:11.552Z,2.97
2022-11-10T16:12:56.821Z,2.53
2022-11-10T16:15:42.670Z,2.67
2022-11-10T16:18:29.667Z,2.85
2022-11-10T16:21:20.903Z,2.92
2022-11-10T16:24:06.424Z,2.40
2022-11-10T16:26:51.594Z,2.83
2022-11-10T16:29:41.131Z,3.85
2022-11-10T16:32:26.434Z,3.55
2022-11-10T16:35:13.744Z,3.03
2022-11-10T16:37:58.907Z,3.15
2022-11-10T16:40:43.827Z,3.15
2022-11-10T16:43:30.741Z,5.20
2022-11-10T16:46:24.261Z,10.02
2022-11-10T16:49:32.863Z,8.48
2022-11-10T16:52:21.183Z,5.22
2022-11-10T16:55:09.592Z,4.20
2022-11-10T16:57:54.640Z,4.30
2022-11-10T17:00:40.562Z,3.60
2022-11-10T17:03:25.643Z,4.13
2022-11-10T17:06:13.457Z,3.60
2022-11-10T17:09:06.878Z,3.97
2022-11-10T17:11:52.422Z,3.75
2022-11-10T17:14:37.751Z,3.42
2022-11-10T17:17:23.267Z,3.75
2022-11-10T17:20:10.646Z,3.60
2022-11-10T17:22:56.517Z,3.25
2022-11-10T17:25:42.998Z,4.45
2022-11-10T17:28:28.130Z,3.53
2022-11-10T17:31:13.890Z,3.88
2022-11-10T17:33:59.163Z,3.60
2022-11-10T17:36:44.310Z,3.08
2022-11-10T17:39:30.007Z,3.15
2022-11-10T17:42:15.421Z,3.25
2022-11-10T17:45:00.761Z,3.25
2022-11-10T17:47:46.826Z,3.00
2022-11-10T17:50:33.058Z,2.95
2022-11-10T17:53:21.200Z,3.25
2022-11-10T17:56:06.839Z,3.38
2022-11-10T17:58:53.623Z,3.40
2022-11-10T18:01:38.860Z,3.55
2022-11-10T18:04:23.789Z,3.22
2022-11-10T18:07:08.711Z,4.15
2022-11-10T18:09:53.676Z,3.50
2022-11-10T18:12:40.489Z,3.03
2022-11-10T18:15:25.486Z,3.42
2022-11-10T18:18:15.667Z,2.95
2022-11-10T18:21:01.291Z,3.65
2022-11-10T18:23:46.368Z,3.00
2022-11-10T18:26:31.708Z,3.08
2022-11-10T18:29:16.810Z,3.08
2022-11-10T18:32:02.713Z,3.83
2022-11-10T18:34:48.026Z,4.07
2022-11-10T18:37:38.001Z,3.45
2022-11-10T18:40:24.894Z,3.65
2022-11-10T18:43:10.565Z,4.47
2022-11-10T18:45:55.975Z,3.88
2022-11-10T18:48:42.583Z,4.35
2022-11-10T18:51:27.874Z,4.68
2022-11-10T18:54:13.560Z,4.20
2022-11-10T18:56:58.870Z,4.55
2022-11-10T18:59:44.634Z,4.47
2022-11-10T19:02:29.935Z,4.57
2022-11-10T19:05:15.806Z,4.60
2022-11-10T19:08:01.249Z,4.22
2022-11-10T19:10:46.942Z,4.28
2022-11-10T19:13:31.928Z,4.80
2022-11-10T19:16:18.926Z,4.68
2022-11-10T19:19:04.738Z,4.43
2022-11-10T19:21:50.504Z,4.63
2022-11-10T19:24:53.653Z,4.15
2022-11-10T19:27:41.320Z,4.15
2022-11-10T19:30:26.511Z,4.28
2022-11-10T19:33:12.007Z,4.13
2022-11-10T19:36:03.124Z,4.65
2022-11-10T19:38:49.080Z,3.95
2022-11-10T19:41:37.040Z,3.90
2022-11-10T19:44:22.995Z,4.10
2022-11-10T19:47:08.299Z,4.53
2022-11-10T19:49:53.529Z,4.80
2022-11-10T19:52:39.445Z,4.38
2022-11-10T19:55:24.374Z,3.60
2022-11-10T19:58:10.098Z,4.03
2022-11-10T20:00:56.486Z,4.57
2022-11-10T20:03:42.040Z,4.53
2022-11-10T20:06:27.074Z,4.50
2022-11-10T20:09:13.438Z,4.38
2022-11-10T20:11:58.468Z,4.45
2022-11-10T20:14:44.297Z,4.68
2022-11-10T20:17:29.111Z,4.25
2022-11-10T20:20:15.721Z,4.82
2022-11-10T20:23:02.518Z,4.82
2022-11-10T20:25:47.624Z,4.72
2022-11-10T20:28:36.029Z,4.05
2022-11-10T20:31:24.611Z,4.90
2022-11-10T20:34:10.110Z,4.93
2022-11-10T20:36:55.756Z,5.10
2022-11-10T20:39:40.915Z,5.03
2022-11-10T20:42:27.107Z,4.68
2022-11-10T20:45:12.721Z,4.55
2022-11-10T20:47:58.836Z,4.20
2022-11-10T20:50:43.895Z,4.32
2022-11-10T20:53:29.757Z,6.45
2022-11-10T20:56:15.663Z,5.53
2022-11-10T20:59:01.169Z,5.03
2022-11-10T21:01:46.383Z,4.30
2022-11-10T21:04:32.134Z,3.85
2022-11-10T21:07:17.144Z,4.40
2022-11-10T21:10:02.633Z,4.30
2022-11-10T21:12:50.714Z,3.05
2022-11-10T21:15:40.337Z,3.60
2022-11-10T21:18:27.755Z,3.90
2022-11-10T21:21:22.858Z,3.75
2022-11-10T21:24:09.551Z,3.72
2022-11-10T21:26:55.871Z,3.65
2022-11-10T21:29:42.203Z,4.05
2022-11-10T21:32:27.947Z,4.20
2022-11-10T21:35:13.112Z,4.00
2022-11-10T21:37:58.034Z,3.53
2022-11-10T21:40:42.896Z,3.50
2022-11-10T21:43:28.214Z,4.65
2022-11-10T21:46:13.552Z,3.92
2022-11-10T21:49:03.107Z,3.80
2022-11-10T21:51:52.303Z,3.20
2022-11-10T21:54:37.339Z,3.70
2022-11-10T21:57:22.448Z,3.22
2022-11-10T22:00:07.821Z,3.45
2022-11-10T22:02:58.206Z,3.42
2022-11-10T22:05:43.319Z,3.22
2022-11-10T22:08:28.336Z,4.03
2022-11-10T22:11:38.615Z,4.03
2022-11-10T22:14:42.281Z,3.45
2022-11-10T22:17:46.554Z,3.47
2022-11-10T22:20:31.611Z,3.47
2022-11-10T22:23:17.370Z,3.38
2022-11-10T22:26:02.658Z,3.20
2022-11-10T22:28:48.061Z,3.78
2022-11-10T22:31:34.009Z,2.97
2022-11-10T22:34:19.722Z,3.30
2022-11-10T22:37:04.930Z,3.45
2022-11-10T22:40:08.708Z,3.25
2022-11-10T22:43:12.763Z,3.45
2022-11-10T22:45:57.968Z,3.80
2022-11-10T22:48:42.997Z,3.47
2022-11-10T22:51:29.564Z,3.28
2022-11-10T22:54:17.559Z,3.30
2022-11-10T22:57:03.000Z,3.65
2022-11-10T22:59:48.713Z,3.45
2022-11-10T23:02:33.768Z,3.42
2022-11-10T23:05:18.762Z,3.40
2022-11-10T23:08:03.978Z,3.30
2022-11-10T23:10:49.307Z,2.70
2022-11-10T23:13:36.066Z,3.08
2022-11-10T23:16:24.193Z,3.00
2022-11-10T23:19:10.815Z,2.97
2022-11-10T23:21:55.651Z,3.75
2022-11-10T23:24:40.695Z,2.70
2022-11-10T23:27:25.713Z,3.45
2022-11-10T23:30:12.249Z,2.55
2022-11-10T23:32:57.607Z,3.25
2022-11-10T23:35:42.813Z,2.95
2022-11-10T23:38:33.643Z,2.85
2022-11-10T23:41:23.518Z,2.72
2022-11-10T23:44:08.714Z,2.70
2022-11-10T23:46:53.693Z,2.83
2022-11-10T23:49:39.095Z,2.83
2022-11-10T23:52:23.946Z,2.88
2022-11-10T23:55:11.282Z,2.35
2022-11-10T23:57:56.116Z,2.85
